sensor_id;sensor_type;location;lat;lon;timestamp;pressure;altitude;pressure_sealevel;temperature;humidity
60437;BME280;46289;51.992;4.498;2023-10-13T00:00:16;101143.38;;;16.42;100.00
60437;BME280;46289;51.992;4.498;2023-10-13T00:02:34;101144.34;;;16.41;100.00
60437;BME280;46289;51.992;4.498;2023-10-13T00:04:41;101144.16;;;16.44;100.00
60437;BME280;46289;51.992;4.498;2023-10-13T00:06:48;101145.38;;;16.38;100.00
60437;BME280;46289;51.992;4.498;2023-10-13T00:08:53;101141.38;;;16.31;100.00
60437;BME280;46289;51.992;4.498;2023-10-13T00:10:58;101141.13;;;16.36;100.00
60437;BME280;46289;51.992;4.498;2023-10-13T00:13:05;101135.88;;;16.34;100.00
60437;BME280;46289;51.992;4.498;2023-10-13T00:15:18;101133.44;;;16.31;100.00
60437;BME280;46289;51.992;4.498;2023-10-13T00:17:29;101129.66;;;16.35;100.00
60437;BME280;46289;51.992;4.498;2023-10-13T00:19:38;101123.66;;;16.32;100.00
60437;BME280;46289;51.992;4.498;2023-10-13T00:21:49;101118.56;;;16.29;100.00
60437;BME280;46289;51.992;4.498;2023-10-13T00:23:54;101119.50;;;16.28;100.00
60437;BME280;46289;51.992;4.498;2023-10-13T00:25:59;101127.34;;;16.29;100.00
60437;BME280;46289;51.992;4.498;2023-10-13T00:28:05;101117.44;;;16.33;100.00
60437;BME280;46289;51.992;4.498;2023-10-13T00:30:11;101115.72;;;16.32;100.00
60437;BME280;46289;51.992;4.498;2023-10-13T00:32:24;101111.56;;;16.28;100.00
60437;BME280;46289;51.992;4.498;2023-10-13T00:34:29;101110.50;;;16.30;100.00
60437;BME280;46289;51.992;4.498;2023-10-13T00:36:38;101105.88;;;16.34;100.00
60437;BME280;46289;51.992;4.498;2023-10-13T00:38:50;101099.03;;;16.30;100.00
60437;BME280;46289;51.992;4.498;2023-10-13T00:40:58;101109.63;;;16.30;100.00
60437;BME280;46289;51.992;4.498;2023-10-13T00:43:06;101100.06;;;16.27;100.00
60437;BME280;46289;51.992;4.498;2023-10-13T00:45:23;101091.75;;;16.33;100.00
60437;BME280;46289;51.992;4.498;2023-10-13T00:47:30;101087.38;;;16.32;100.00
60437;BME280;46289;51.992;4.498;2023-10-13T00:49:49;101092.69;;;16.32;100.00
60437;BME280;46289;51.992;4.498;2023-10-13T00:51:58;101087.31;;;16.34;100.00
60437;BME280;46289;51.992;4.498;2023-10-13T00:54:05;101087.22;;;16.35;100.00
60437;BME280;46289;51.992;4.498;2023-10-13T00:56:15;101086.53;;;16.32;100.00
60437;BME280;46289;51.992;4.498;2023-10-13T00:58:21;101071.38;;;16.34;100.00
60437;BME280;46289;51.992;4.498;2023-10-13T01:00:29;101073.47;;;16.29;100.00
60437;BME280;46289;51.992;4.498;2023-10-13T01:02:31;101068.94;;;16.31;100.00
60437;BME280;46289;51.992;4.498;2023-10-13T01:04:43;101067.63;;;16.38;100.00
60437;BME280;46289;51.992;4.498;2023-10-13T01:06:48;101059.75;;;16.36;100.00
60437;BME280;46289;51.992;4.498;2023-10-13T01:09:02;101060.00;;;16.32;100.00
60437;BME280;46289;51.992;4.498;2023-10-13T01:11:15;101059.25;;;16.30;100.00
60437;BME280;46289;51.992;4.498;2023-10-13T01:13:20;101055.56;;;16.32;100.00
60437;BME280;46289;51.992;4.498;2023-10-13T01:15:24;101047.72;;;16.31;100.00
60437;BME280;46289;51.992;4.498;2023-10-13T01:17:32;101053.94;;;16.30;100.00
60437;BME280;46289;51.992;4.498;2023-10-13T01:19:36;101054.91;;;16.29;100.00
60437;BME280;46289;51.992;4.498;2023-10-13T01:21:47;101046.75;;;16.32;100.00
60437;BME280;46289;51.992;4.498;2023-10-13T01:23:53;101050.25;;;16.32;100.00
60437;BME280;46289;51.992;4.498;2023-10-13T01:26:01;101033.59;;;16.30;100.00
60437;BME280;46289;51.992;4.498;2023-10-13T01:28:07;101038.59;;;16.35;100.00
60437;BME280;46289;51.992;4.498;2023-10-13T01:30:17;101041.56;;;16.30;100.00
60437;BME280;46289;51.992;4.498;2023-10-13T01:32:24;101037.19;;;16.29;100.00
60437;BME280;46289;51.992;4.498;2023-10-13T01:34:30;101030.06;;;16.30;100.00
60437;BME280;46289;51.992;4.498;2023-10-13T01:36:35;101024.78;;;16.30;100.00
60437;BME280;46289;51.992;4.498;2023-10-13T01:38:45;101030.00;;;16.31;100.00
60437;BME280;46289;51.992;4.498;2023-10-13T01:40:51;101021.09;;;16.32;100.00
60437;BME280;46289;51.992;4.498;2023-10-13T01:42:59;101013.31;;;16.29;100.00
60437;BME280;46289;51.992;4.498;2023-10-13T01:45:01;101019.38;;;16.31;100.00
60437;BME280;46289;51.992;4.498;2023-10-13T01:47:09;101020.63;;;16.26;100.00
60437;BME280;46289;51.992;4.498;2023-10-13T01:49:17;101018.44;;;16.32;100.00
60437;BME280;46289;51.992;4.498;2023-10-13T01:51:24;101008.13;;;16.28;100.00
60437;BME280;46289;51.992;4.498;2023-10-13T01:53:30;101009.81;;;16.29;100.00
60437;BME280;46289;51.992;4.498;2023-10-13T01:55:35;101011.72;;;16.27;100.00
60437;BME280;46289;51.992;4.498;2023-10-13T01:57:44;100998.44;;;16.27;100.00
60437;BME280;46289;51.992;4.498;2023-10-13T01:59:52;100998.44;;;16.27;100.00
60437;BME280;46289;51.992;4.498;2023-10-13T02:01:54;100996.09;;;16.22;100.00
60437;BME280;46289;51.992;4.498;2023-10-13T02:04:03;100985.78;;;16.17;100.00
60437;BME280;46289;51.992;4.498;2023-10-13T02:06:06;100979.50;;;16.18;100.00
60437;BME280;46289;51.992;4.498;2023-10-13T02:08:19;100964.56;;;16.17;100.00
60437;BME280;46289;51.992;4.498;2023-10-13T02:10:25;100965.50;;;16.16;100.00
60437;BME280;46289;51.992;4.498;2023-10-13T02:12:32;100956.03;;;16.12;100.00
60437;BME280;46289;51.992;4.498;2023-10-13T02:14:42;100964.75;;;16.14;100.00
60437;BME280;46289;51.992;4.498;2023-10-13T02:16:47;100965.50;;;16.16;100.00
60437;BME280;46289;51.992;4.498;2023-10-13T02:18:52;100956.88;;;16.13;100.00
60437;BME280;46289;51.992;4.498;2023-10-13T02:21:02;100955.19;;;16.12;100.00
60437;BME280;46289;51.992;4.498;2023-10-13T02:23:06;100949.91;;;16.12;100.00
60437;BME280;46289;51.992;4.498;2023-10-13T02:25:13;100955.28;;;16.10;100.00
60437;BME280;46289;51.992;4.498;2023-10-13T02:27:19;100951.88;;;16.08;100.00
60437;BME280;46289;51.992;4.498;2023-10-13T02:29:25;100950.94;;;16.09;100.00
60437;BME280;46289;51.992;4.498;2023-10-13T02:31:30;100940.97;;;16.13;100.00
60437;BME280;46289;51.992;4.498;2023-10-13T02:33:35;100933.88;;;16.13;100.00
60437;BME280;46289;51.992;4.498;2023-10-13T02:35:49;100920.81;;;16.10;100.00
60437;BME280;46289;51.992;4.498;2023-10-13T02:37:58;100918.34;;;16.07;100.00
60437;BME280;46289;51.992;4.498;2023-10-13T02:40:00;100905.19;;;16.06;100.00
60437;BME280;46289;51.992;4.498;2023-10-13T02:42:07;100902.66;;;16.04;100.00
60437;BME280;46289;51.992;4.498;2023-10-13T02:44:09;100897.44;;;16.02;100.00
60437;BME280;46289;51.992;4.498;2023-10-13T02:46:23;100894.91;;;16.01;100.00
60437;BME280;46289;51.992;4.498;2023-10-13T02:48:29;100902.34;;;16.09;100.00
60437;BME280;46289;51.992;4.498;2023-10-13T02:50:58;100887.59;;;16.05;100.00
60437;BME280;46289;51.992;4.498;2023-10-13T02:53:04;100890.25;;;16.05;100.00
60437;BME280;46289;51.992;4.498;2023-10-13T02:55:14;100883.34;;;16.02;100.00
60437;BME280;46289;51.992;4.498;2023-10-13T02:57:26;100886.06;;;16.00;100.00
60437;BME280;46289;51.992;4.498;2023-10-13T02:59:36;100886.19;;;15.99;100.00
60437;BME280;46289;51.992;4.498;2023-10-13T03:01:43;100879.00;;;16.01;100.00
60437;BME280;46289;51.992;4.498;2023-10-13T03:03:51;100868.56;;;15.98;100.00
60437;BME280;46289;51.992;4.498;2023-10-13T03:05:59;100871.22;;;15.98;100.00
60437;BME280;46289;51.992;4.498;2023-10-13T03:08:05;100876.50;;;15.98;100.00
60437;BME280;46289;51.992;4.498;2023-10-13T03:10:10;100856.06;;;16.00;100.00
60437;BME280;46289;51.992;4.498;2023-10-13T03:12:17;100843.97;;;15.96;100.00
60437;BME280;46289;51.992;4.498;2023-10-13T03:14:22;100832.59;;;15.94;100.00
60437;BME280;46289;51.992;4.498;2023-10-13T03:16:33;100815.88;;;15.93;100.00
60437;BME280;46289;51.992;4.498;2023-10-13T03:18:37;100810.66;;;15.92;100.00
60437;BME280;46289;51.992;4.498;2023-10-13T03:20:55;100812.16;;;15.96;100.00
60437;BME280;46289;51.992;4.498;2023-10-13T03:23:01;100809.69;;;15.93;100.00
60437;BME280;46289;51.992;4.498;2023-10-13T03:25:11;100809.50;;;15.96;100.00
60437;BME280;46289;51.992;4.498;2023-10-13T03:27:19;100807.16;;;15.91;100.00
60437;BME280;46289;51.992;4.498;2023-10-13T03:29:44;100795.44;;;15.81;100.00
60437;BME280;46289;51.992;4.498;2023-10-13T03:31:48;100782.81;;;15.85;100.00
60437;BME280;46289;51.992;4.498;2023-10-13T03:34:09;100768.94;;;15.81;100.00
60437;BME280;46289;51.992;4.498;2023-10-13T03:36:17;100770.94;;;15.77;100.00
60437;BME280;46289;51.992;4.498;2023-10-13T03:38:47;100765.63;;;15.77;100.00
60437;BME280;46289;51.992;4.498;2023-10-13T03:40:59;100758.53;;;15.78;100.00
60437;BME280;46289;51.992;4.498;2023-10-13T03:43:20;100753.22;;;15.78;100.00
60437;BME280;46289;51.992;4.498;2023-10-13T03:45:26;100749.75;;;15.77;100.00
60437;BME280;46289;51.992;4.498;2023-10-13T03:47:38;100753.69;;;15.85;100.00
60437;BME280;46289;51.992;4.498;2023-10-13T03:49:47;100746.03;;;15.80;100.00
60437;BME280;46289;51.992;4.498;2023-10-13T03:52:00;100739.88;;;15.79;100.00
60437;BME280;46289;51.992;4.498;2023-10-13T03:54:08;100731.84;;;15.81;100.00
60437;BME280;46289;51.992;4.498;2023-10-13T03:56:17;100742.16;;;15.86;100.00
60437;BME280;46289;51.992;4.498;2023-10-13T03:58:31;100739.50;;;15.86;100.00
60437;BME280;46289;51.992;4.498;2023-10-13T04:00:37;100730.69;;;15.85;100.00
60437;BME280;46289;51.992;4.498;2023-10-13T04:02:50;100723.41;;;15.89;100.00
60437;BME280;46289;51.992;4.498;2023-10-13T04:05:10;100720.63;;;15.90;100.00
60437;BME280;46289;51.992;4.498;2023-10-13T04:07:38;100719.50;;;15.94;100.00
60437;BME280;46289;51.992;4.498;2023-10-13T04:10:07;100717.75;;;16.08;100.00
60437;BME280;46289;51.992;4.498;2023-10-13T04:12:41;100713.28;;;16.08;100.00
60437;BME280;46289;51.992;4.498;2023-10-13T04:14:59;100709.03;;;16.06;100.00
60437;BME280;46289;51.992;4.498;2023-10-13T04:17:23;100716.91;;;16.07;100.00
60437;BME280;46289;51.992;4.498;2023-10-13T04:19:29;100707.59;;;16.14;100.00
60437;BME280;46289;51.992;4.498;2023-10-13T04:21:53;100696.78;;;16.17;100.00
60437;BME280;46289;51.992;4.498;2023-10-13T04:24:19;100699.44;;;16.17;100.00
60437;BME280;46289;51.992;4.498;2023-10-13T04:26:36;100718.63;;;16.21;100.00
60437;BME280;46289;51.992;4.498;2023-10-13T04:28:44;100682.19;;;16.24;100.00
60437;BME280;46289;51.992;4.498;2023-10-13T04:30:58;100674.94;;;16.27;100.00
60437;BME280;46289;51.992;4.498;2023-10-13T04:33:09;100676.53;;;16.29;100.00
60437;BME280;46289;51.992;4.498;2023-10-13T04:35:38;100685.78;;;16.36;100.00
60437;BME280;46289;51.992;4.498;2023-10-13T04:37:49;100677.53;;;16.41;100.00
60437;BME280;46289;51.992;4.498;2023-10-13T04:40:03;100677.97;;;16.48;100.00
60437;BME280;46289;51.992;4.498;2023-10-13T04:42:12;100675.00;;;16.52;100.00
60437;BME280;46289;51.992;4.498;2023-10-13T04:44:38;100679.25;;;16.55;100.00
60437;BME280;46289;51.992;4.498;2023-10-13T04:46:50;100676.50;;;16.56;100.00
60437;BME280;46289;51.992;4.498;2023-10-13T04:49:10;100670.03;;;16.60;100.00
60437;BME280;46289;51.992;4.498;2023-10-13T04:51:29;100660.78;;;16.66;100.00
60437;BME280;46289;51.992;4.498;2023-10-13T04:53:52;100657.19;;;16.67;100.00
60437;BME280;46289;51.992;4.498;2023-10-13T04:56:15;100678.22;;;16.70;100.00
60437;BME280;46289;51.992;4.498;2023-10-13T04:58:33;100664.81;;;16.72;100.00
60437;BME280;46289;51.992;4.498;2023-10-13T05:00:50;100664.09;;;16.70;100.00
60437;BME280;46289;51.992;4.498;2023-10-13T05:03:13;100662.38;;;16.68;100.00
60437;BME280;46289;51.992;4.498;2023-10-13T05:05:33;100654.94;;;16.61;100.00
60437;BME280;46289;51.992;4.498;2023-10-13T05:08:11;100654.41;;;16.56;100.00
60437;BME280;46289;51.992;4.498;2023-10-13T05:10:28;100640.81;;;16.48;100.00
60437;BME280;46289;51.992;4.498;2023-10-13T05:12:57;100631.50;;;16.42;100.00
60437;BME280;46289;51.992;4.498;2023-10-13T05:15:18;100622.25;;;16.35;100.00
60437;BME280;46289;51.992;4.498;2023-10-13T05:17:35;100618.41;;;16.26;100.00
60437;BME280;46289;51.992;4.498;2023-10-13T05:19:58;100617.03;;;16.20;100.00
60437;BME280;46289;51.992;4.498;2023-10-13T05:22:17;100610.22;;;16.16;100.00
60437;BME280;46289;51.992;4.498;2023-10-13T05:24:34;100607.25;;;16.08;100.00
60437;BME280;46289;51.992;4.498;2023-10-13T05:26:52;100612.88;;;16.16;100.00
60437;BME280;46289;51.992;4.498;2023-10-13T05:29:14;100600.81;;;16.12;100.00
60437;BME280;46289;51.992;4.498;2023-10-13T05:31:31;100590.19;;;16.12;100.00
60437;BME280;46289;51.992;4.498;2023-10-13T05:33:49;100598.16;;;16.12;100.00
60437;BME280;46289;51.992;4.498;2023-10-13T05:36:12;100592.09;;;16.10;100.00
60437;BME280;46289;51.992;4.498;2023-10-13T05:38:30;100584.44;;;16.06;100.00
60437;BME280;46289;51.992;4.498;2023-10-13T05:40:55;100580.97;;;16.05;100.00
60437;BME280;46289;51.992;4.498;2023-10-13T05:43:13;100589.66;;;16.07;100.00
60437;BME280;46289;51.992;4.498;2023-10-13T05:45:35;100587.97;;;16.06;100.00
60437;BME280;46289;51.992;4.498;2023-10-13T05:48:07;100587.84;;;16.08;100.00
60437;BME280;46289;51.992;4.498;2023-10-13T05:50:17;100579.69;;;16.11;100.00
60437;BME280;46289;51.992;4.498;2023-10-13T05:52:52;100581.50;;;16.10;100.00
60437;BME280;46289;51.992;4.498;2023-10-13T05:55:09;100571.44;;;16.15;100.00
60437;BME280;46289;51.992;4.498;2023-10-13T05:57:26;100566.97;;;16.16;100.00
60437;BME280;46289;51.992;4.498;2023-10-13T05:59:47;100559.97;;;16.15;100.00
60437;BME280;46289;51.992;4.498;2023-10-13T06:02:07;100563.47;;;16.15;100.00
60437;BME280;46289;51.992;4.498;2023-10-13T06:04:26;100561.66;;;16.16;100.00
60437;BME280;46289;51.992;4.498;2023-10-13T06:06:52;100567.81;;;16.16;100.00
60437;BME280;46289;51.992;4.498;2023-10-13T06:09:09;100558.72;;;16.20;100.00
60437;BME280;46289;51.992;4.498;2023-10-13T06:11:26;100554.16;;;16.22;100.00
60437;BME280;46289;51.992;4.498;2023-10-13T06:13:48;100547.28;;;16.33;100.00
60437;BME280;46289;51.992;4.498;2023-10-13T06:16:06;100546.09;;;16.37;100.00
60437;BME280;46289;51.992;4.498;2023-10-13T06:18:26;100543.22;;;16.40;100.00
60437;BME280;46289;51.992;4.498;2023-10-13T06:20:43;100536.63;;;16.45;100.00
60437;BME280;46289;51.992;4.498;2023-10-13T06:23:00;100532.19;;;16.46;100.00
60437;BME280;46289;51.992;4.498;2023-10-13T06:25:18;100516.06;;;16.49;100.00
60437;BME280;46289;51.992;4.498;2023-10-13T06:27:35;100516.59;;;16.54;100.00
60437;BME280;46289;51.992;4.498;2023-10-13T06:29:55;100498.66;;;16.58;100.00
60437;BME280;46289;51.992;4.498;2023-10-13T06:32:00;100506.50;;;16.59;100.00
60437;BME280;46289;51.992;4.498;2023-10-13T06:34:18;100498.84;;;16.67;100.00
60437;BME280;46289;51.992;4.498;2023-10-13T06:36:30;100490.75;;;16.69;100.00
60437;BME280;46289;51.992;4.498;2023-10-13T06:38:35;100480.78;;;16.73;100.00
60437;BME280;46289;51.992;4.498;2023-10-13T06:40:45;100494.69;;;16.76;100.00
60437;BME280;46289;51.992;4.498;2023-10-13T06:42:52;100484.19;;;16.75;100.00
60437;BME280;46289;51.992;4.498;2023-10-13T06:45:21;100485.88;;;16.76;100.00
60437;BME280;46289;51.992;4.498;2023-10-13T06:47:32;100482.25;;;16.77;100.00
60437;BME280;46289;51.992;4.498;2023-10-13T06:49:47;100478.47;;;16.81;100.00
60437;BME280;46289;51.992;4.498;2023-10-13T06:51:53;100469.31;;;16.85;100.00
60437;BME280;46289;51.992;4.498;2023-10-13T06:54:02;100463.81;;;16.88;100.00
60437;BME280;46289;51.992;4.498;2023-10-13T06:56:16;100470.56;;;16.92;100.00
60437;BME280;46289;51.992;4.498;2023-10-13T06:58:24;100479.38;;;16.93;100.00
60437;BME280;46289;51.992;4.498;2023-10-13T07:00:31;100461.28;;;16.98;100.00
60437;BME280;46289;51.992;4.498;2023-10-13T07:02:37;100452.16;;;17.02;100.00
60437;BME280;46289;51.992;4.498;2023-10-13T07:04:49;100459.16;;;17.03;100.00
60437;BME280;46289;51.992;4.498;2023-10-13T07:06:59;100483.69;;;17.06;100.00
60437;BME280;46289;51.992;4.498;2023-10-13T07:09:08;100489.00;;;17.06;100.00
60437;BME280;46289;51.992;4.498;2023-10-13T07:11:26;100490.34;;;17.12;100.00
60437;BME280;46289;51.992;4.498;2023-10-13T07:13:44;100487.47;;;17.15;100.00
60437;BME280;46289;51.992;4.498;2023-10-13T07:15:54;100486.63;;;17.15;100.00
60437;BME280;46289;51.992;4.498;2023-10-13T07:18:17;100458.34;;;17.14;100.00
60437;BME280;46289;51.992;4.498;2023-10-13T07:20:27;100467.28;;;17.13;100.00
60437;BME280;46289;51.992;4.498;2023-10-13T07:22:38;100468.66;;;17.18;100.00
60437;BME280;46289;51.992;4.498;2023-10-13T07:24:57;100455.59;;;17.15;100.00
60437;BME280;46289;51.992;4.498;2023-10-13T07:27:08;100470.47;;;17.18;100.00
60437;BME280;46289;51.992;4.498;2023-10-13T07:29:12;100449.38;;;17.27;100.00
60437;BME280;46289;51.992;4.498;2023-10-13T07:31:17;100448.09;;;17.33;100.00
60437;BME280;46289;51.992;4.498;2023-10-13T07:33:23;100446.25;;;17.33;100.00
60437;BME280;46289;51.992;4.498;2023-10-13T07:35:31;100443.88;;;17.42;100.00
60437;BME280;46289;51.992;4.498;2023-10-13T07:37:38;100450.78;;;17.55;100.00
60437;BME280;46289;51.992;4.498;2023-10-13T07:39:43;100447.19;;;17.57;100.00
60437;BME280;46289;51.992;4.498;2023-10-13T07:41:52;100456.38;;;17.64;100.00
60437;BME280;46289;51.992;4.498;2023-10-13T07:43:56;100453.50;;;17.67;100.00
60437;BME280;46289;51.992;4.498;2023-10-13T07:46:01;100444.22;;;17.72;100.00
60437;BME280;46289;51.992;4.498;2023-10-13T07:48:11;100452.56;;;17.79;100.00
60437;BME280;46289;51.992;4.498;2023-10-13T07:50:23;100444.50;;;17.81;100.00
60437;BME280;46289;51.992;4.498;2023-10-13T07:52:31;100436.03;;;17.87;100.00
60437;BME280;46289;51.992;4.498;2023-10-13T07:54:56;100435.44;;;17.83;100.00
60437;BME280;46289;51.992;4.498;2023-10-13T07:57:14;100433.88;;;17.92;100.00
60437;BME280;46289;51.992;4.498;2023-10-13T07:59:29;100429.63;;;17.89;100.00
60437;BME280;46289;51.992;4.498;2023-10-13T08:01:34;100427.13;;;17.88;100.00
60437;BME280;46289;51.992;4.498;2023-10-13T08:03:45;100425.16;;;17.90;100.00
60437;BME280;46289;51.992;4.498;2023-10-13T08:06:09;100417.31;;;17.88;100.00
60437;BME280;46289;51.992;4.498;2023-10-13T08:08:31;100431.31;;;17.90;100.00
60437;BME280;46289;51.992;4.498;2023-10-13T08:10:42;100432.44;;;17.99;100.00
60437;BME280;46289;51.992;4.498;2023-10-13T08:12:48;100419.97;;;17.99;100.00
60437;BME280;46289;51.992;4.498;2023-10-13T08:14:54;100418.78;;;18.04;100.00
60437;BME280;46289;51.992;4.498;2023-10-13T08:17:13;100418.06;;;18.02;100.00
60437;BME280;46289;51.992;4.498;2023-10-13T08:19:20;100431.59;;;18.10;100.00
60437;BME280;46289;51.992;4.498;2023-10-13T08:21:29;100401.97;;;18.03;100.00
60437;BME280;46289;51.992;4.498;2023-10-13T08:23:36;100401.25;;;18.01;100.00
60437;BME280;46289;51.992;4.498;2023-10-13T08:25:56;100401.84;;;18.05;100.00
60437;BME280;46289;51.992;4.498;2023-10-13T08:28:14;100401.25;;;18.01;100.00
60437;BME280;46289;51.992;4.498;2023-10-13T08:30:41;100395.31;;;17.97;100.00
60437;BME280;46289;51.992;4.498;2023-10-13T08:32:56;100387.25;;;17.99;100.00
60437;BME280;46289;51.992;4.498;2023-10-13T08:35:02;100392.91;;;18.06;100.00
60437;BME280;46289;51.992;4.498;2023-10-13T08:37:36;100399.19;;;18.05;100.00
60437;BME280;46289;51.992;4.498;2023-10-13T08:40:22;100403.28;;;18.09;100.00
60437;BME280;46289;51.992;4.498;2023-10-13T08:42:42;100385.41;;;18.11;100.00
60437;BME280;46289;51.992;4.498;2023-10-13T08:45:18;100397.38;;;18.16;100.00
60437;BME280;46289;51.992;4.498;2023-10-13T08:47:48;100378.63;;;18.18;100.00
60437;BME280;46289;51.992;4.498;2023-10-13T08:50:09;100389.28;;;18.18;100.00
60437;BME280;46289;51.992;4.498;2023-10-13T08:52:38;100379.38;;;18.20;100.00
60437;BME280;46289;51.992;4.498;2023-10-13T08:54:51;100374.78;;;18.22;100.00
60437;BME280;46289;51.992;4.498;2023-10-13T08:57:16;100380.09;;;18.22;100.00
60437;BME280;46289;51.992;4.498;2023-10-13T08:59:32;100385.75;;;18.29;100.00
60437;BME280;46289;51.992;4.498;2023-10-13T09:01:55;100379.72;;;18.27;100.00
60437;BME280;46289;51.992;4.498;2023-10-13T09:04:02;100365.06;;;18.32;100.00
60437;BME280;46289;51.992;4.498;2023-10-13T09:06:21;100368.59;;;18.33;100.00
60437;BME280;46289;51.992;4.498;2023-10-13T09:08:28;100370.38;;;18.32;100.00
60437;BME280;46289;51.992;4.498;2023-10-13T09:10:37;100351.28;;;18.38;100.00
60437;BME280;46289;51.992;4.498;2023-10-13T09:13:10;100332.94;;;18.35;100.00
60437;BME280;46289;51.992;4.498;2023-10-13T09:15:29;100351.41;;;18.37;100.00
60437;BME280;46289;51.992;4.498;2023-10-13T09:17:55;100356.97;;;18.34;100.00
60437;BME280;46289;51.992;4.498;2023-10-13T09:20:27;100352.25;;;18.37;100.00
60437;BME280;46289;51.992;4.498;2023-10-13T09:22:48;100348.00;;;18.35;100.00
60437;BME280;46289;51.992;4.498;2023-10-13T09:24:57;100350.78;;;18.45;100.00
60437;BME280;46289;51.992;4.498;2023-10-13T09:27:04;100337.22;;;18.48;100.00
60437;BME280;46289;51.992;4.498;2023-10-13T09:29:18;100339.16;;;18.46;100.00
60437;BME280;46289;51.992;4.498;2023-10-13T09:31:23;100341.09;;;18.55;100.00
60437;BME280;46289;51.992;4.498;2023-10-13T09:33:36;100331.28;;;18.55;100.00
60437;BME280;46289;51.992;4.498;2023-10-13T09:35:52;100311.56;;;18.58;100.00
60437;BME280;46289;51.992;4.498;2023-10-13T09:37:58;100313.97;;;18.61;100.00
60437;BME280;46289;51.992;4.498;2023-10-13T09:40:06;100318.53;;;18.70;100.00
60437;BME280;46289;51.992;4.498;2023-10-13T09:42:27;100317.28;;;18.74;100.00
60437;BME280;46289;51.992;4.498;2023-10-13T09:44:39;100309.31;;;18.74;100.00
60437;BME280;46289;51.992;4.498;2023-10-13T09:46:43;100311.97;;;18.74;100.00
60437;BME280;46289;51.992;4.498;2023-10-13T09:48:49;100308.13;;;18.78;100.00
60437;BME280;46289;51.992;4.498;2023-10-13T09:51:11;100310.78;;;18.78;100.00
60437;BME280;46289;51.992;4.498;2023-10-13T09:53:21;100299.75;;;18.72;100.00
60437;BME280;46289;51.992;4.498;2023-10-13T09:55:29;100308.38;;;18.75;100.00
60437;BME280;46289;51.992;4.498;2023-10-13T09:57:38;100306.13;;;18.92;100.00
60437;BME280;46289;51.992;4.498;2023-10-13T09:59:52;100294.09;;;18.97;100.00
60437;BME280;46289;51.992;4.498;2023-10-13T10:02:09;100300.72;;;19.03;100.00
60437;BME280;46289;51.992;4.498;2023-10-13T10:04:21;100292.94;;;19.11;100.00
60437;BME280;46289;51.992;4.498;2023-10-13T10:06:27;100304.19;;;19.15;100.00
60437;BME280;46289;51.992;4.498;2023-10-13T10:08:43;100286.75;;;19.32;100.00
60437;BME280;46289;51.992;4.498;2023-10-13T10:13:47;100283.47;;;19.49;100.00
60437;BME280;46289;51.992;4.498;2023-10-13T10:16:08;100277.59;;;19.55;100.00
60437;BME280;46289;51.992;4.498;2023-10-13T10:18:19;100280.00;;;19.58;100.00
60437;BME280;46289;51.992;4.498;2023-10-13T10:20:28;100290.66;;;19.58;100.00
60437;BME280;46289;51.992;4.498;2023-10-13T10:25:04;100291.09;;;19.63;100.00
60437;BME280;46289;51.992;4.498;2023-10-13T10:27:28;100291.38;;;19.60;100.00
60437;BME280;46289;51.992;4.498;2023-10-13T10:29:36;100281.09;;;19.56;100.00
60437;BME280;46289;51.992;4.498;2023-10-13T10:31:48;100279.81;;;19.50;100.00
60437;BME280;46289;51.992;4.498;2023-10-13T10:33:56;100270.53;;;19.44;100.00
60437;BME280;46289;51.992;4.498;2023-10-13T10:36:02;100275.59;;;19.47;100.00
60437;BME280;46289;51.992;4.498;2023-10-13T10:38:08;100266.66;;;19.48;100.00
60437;BME280;46289;51.992;4.498;2023-10-13T10:40:18;100247.84;;;19.50;100.00
60437;BME280;46289;51.992;4.498;2023-10-13T10:42:37;100252.91;;;19.53;100.00
60437;BME280;46289;51.992;4.498;2023-10-13T10:44:43;100252.63;;;19.56;100.00
60437;BME280;46289;51.992;4.498;2023-10-13T10:46:55;100263.63;;;19.63;100.00
60437;BME280;46289;51.992;4.498;2023-10-13T10:49:04;100259.97;;;19.64;100.00
60437;BME280;46289;51.992;4.498;2023-10-13T10:51:13;100250.16;;;19.64;100.00
60437;BME280;46289;51.992;4.498;2023-10-13T10:53:24;100252.13;;;19.62;100.00
60437;BME280;46289;51.992;4.498;2023-10-13T10:55:36;100237.56;;;19.66;100.00
60437;BME280;46289;51.992;4.498;2023-10-13T10:57:43;100212.84;;;19.64;100.00
60437;BME280;46289;51.992;4.498;2023-10-13T10:59:51;100236.88;;;19.74;100.00
60437;BME280;46289;51.992;4.498;2023-10-13T11:02:18;100231.97;;;19.79;100.00
60437;BME280;46289;51.992;4.498;2023-10-13T11:04:31;100216.00;;;19.89;100.00
60437;BME280;46289;51.992;4.498;2023-10-13T11:06:49;100210.13;;;19.95;100.00
60437;BME280;46289;51.992;4.498;2023-10-13T11:09:03;100225.31;;;20.04;100.00
60437;BME280;46289;51.992;4.498;2023-10-13T11:11:30;100231.06;;;20.09;100.00
60437;BME280;46289;51.992;4.498;2023-10-13T11:13:48;100220.84;;;20.14;100.00
60437;BME280;46289;51.992;4.498;2023-10-13T11:16:19;100212.41;;;20.29;99.39
60437;BME280;46289;51.992;4.498;2023-10-13T11:18:33;100228.72;;;20.35;98.37
60437;BME280;46289;51.992;4.498;2023-10-13T11:20:44;100212.53;;;20.37;99.18
60437;BME280;46289;51.992;4.498;2023-10-13T11:22:56;100206.38;;;20.36;98.92
60437;BME280;46289;51.992;4.498;2023-10-13T11:25:03;100208.63;;;20.31;98.59
60437;BME280;46289;51.992;4.498;2023-10-13T11:27:14;100220.00;;;20.33;98.18
60437;BME280;46289;51.992;4.498;2023-10-13T11:29:41;100225.19;;;20.25;97.35
60437;BME280;46289;51.992;4.498;2023-10-13T11:32:01;100233.75;;;20.29;97.93